createdAt,value
2022-11-17T00:04:29.846Z,74.49
2022-11-17T00:09:32.470Z,74.46
2022-11-17T00:14:37.481Z,74.75
2022-11-17T00:19:45.356Z,74.57
2022-11-17T00:24:48.882Z,74.35
2022-11-17T00:30:26.996Z,74.30
2022-11-17T00:35:29.531Z,74.29
2022-11-17T00:40:32.083Z,74.10
2022-11-17T00:45:34.689Z,73.89
2022-11-17T00:50:37.292Z,74.02
2022-11-17T00:55:42.555Z,73.39
2022-11-17T01:00:45.133Z,73.29
2022-11-17T01:05:47.719Z,73.14
2022-11-17T01:10:50.353Z,73.34
2022-11-17T01:15:52.986Z,73.43
2022-11-17T01:20:55.543Z,73.17
2022-11-17T01:26:02.413Z,73.36
2022-11-17T01:31:08.637Z,73.45
2022-11-17T01:36:30.277Z,73.48
2022-11-17T01:41:32.845Z,73.34
2022-11-17T01:46:38.332Z,73.56
2022-11-17T01:51:50.713Z,73.56
2022-11-17T01:56:58.328Z,73.90
2022-11-17T02:02:01.215Z,74.05
2022-11-17T02:07:09.698Z,73.90
2022-11-17T02:12:14.155Z,74.09
2022-11-17T02:17:18.010Z,74.31
2022-11-17T02:23:30.626Z,74.40
2022-11-17T02:28:47.592Z,74.48
2022-11-17T02:33:50.434Z,74.55
2022-11-17T02:39:00.908Z,74.39
2022-11-17T02:44:12.836Z,74.39
2022-11-17T02:49:18.301Z,74.54
2022-11-17T02:54:23.185Z,74.29
2022-11-17T02:59:31.191Z,74.62
2022-11-17T03:04:46.871Z,74.36
2022-11-17T03:10:03.781Z,74.56
2022-11-17T03:15:06.328Z,74.48
2022-11-17T03:20:17.348Z,74.54
2022-11-17T03:25:23.513Z,74.72
2022-11-17T03:30:30.863Z,74.76
2022-11-17T03:35:43.936Z,74.73
2022-11-17T03:40:52.877Z,74.52
2022-11-17T03:45:58.892Z,74.15
2022-11-17T03:51:09.215Z,73.97
2022-11-17T03:56:16.682Z,73.56
2022-11-17T04:01:21.207Z,73.45
2022-11-17T04:06:23.906Z,73.53
2022-11-17T04:11:29.403Z,73.17
2022-11-17T04:16:31.973Z,73.46
2022-11-17T04:21:34.731Z,73.22
2022-11-17T04:26:40.230Z,73.15
2022-11-17T04:31:42.792Z,72.91
2022-11-17T04:36:45.548Z,72.43
2022-11-17T04:41:52.074Z,72.31
2022-11-17T04:46:55.786Z,71.15
2022-11-17T04:52:01.156Z,70.87
2022-11-17T04:57:03.778Z,71.74
2022-11-17T05:02:06.620Z,71.89
2022-11-17T05:07:09.456Z,72.38
2022-11-17T05:12:15.052Z,72.79
2022-11-17T05:17:17.666Z,73.05
2022-11-17T05:22:25.915Z,73.26
2022-11-17T05:27:28.639Z,73.09
2022-11-17T05:32:31.436Z,73.33
2022-11-17T05:37:33.976Z,73.12
2022-11-17T05:42:36.595Z,73.36
2022-11-17T05:47:39.534Z,73.60
2022-11-17T05:52:42.073Z,73.47
2022-11-17T05:57:45.088Z,73.86
2022-11-17T06:02:52.864Z,73.95
2022-11-17T06:07:57.876Z,73.90
2022-11-17T06:13:00.524Z,73.83
2022-11-17T06:18:08.007Z,73.43
2022-11-17T06:23:12.056Z,73.33
2022-11-17T06:28:19.411Z,73.10
2022-11-17T06:33:22.162Z,72.81
2022-11-17T06:38:24.762Z,72.43
2022-11-17T06:43:27.327Z,72.66
2022-11-17T06:48:30.270Z,73.06
2022-11-17T06:53:34.296Z,73.03
2022-11-17T06:58:39.565Z,73.08
2022-11-17T07:03:43.283Z,72.78
2022-11-17T07:08:46.203Z,72.79
2022-11-17T07:13:48.771Z,72.63
2022-11-17T07:18:53.001Z,72.91
2022-11-17T07:23:55.628Z,72.49
2022-11-17T07:28:58.332Z,72.93
2022-11-17T07:34:00.846Z,72.60
2022-11-17T07:39:05.336Z,71.50
2022-11-17T07:44:07.910Z,71.57
2022-11-17T07:49:10.675Z,71.56
2022-11-17T07:54:13.218Z,71.27
2022-11-17T07:59:21.038Z,71.17
2022-11-17T08:04:24.021Z,70.76
2022-11-17T08:09:26.544Z,70.40
2022-11-17T08:14:29.746Z,69.92
2022-11-17T08:19:32.509Z,69.70
2022-11-17T08:24:35.221Z,69.35
2022-11-17T08:29:38.158Z,69.72
2022-11-17T08:34:41.127Z,69.25
2022-11-17T08:39:43.684Z,69.12
2022-11-17T08:44:46.530Z,67.82
2022-11-17T08:49:49.131Z,67.45
2022-11-17T08:54:52.436Z,65.67
2022-11-17T08:59:55.097Z,65.84
2022-11-17T09:04:57.619Z,65.88
2022-11-17T09:10:01.115Z,64.85
2022-11-17T09:15:05.617Z,64.44
2022-11-17T09:20:08.991Z,64.29
2022-11-17T09:25:13.672Z,63.44
2022-11-17T09:30:21.780Z,63.09
2022-11-17T09:35:24.403Z,63.15
2022-11-17T09:40:34.648Z,62.59
2022-11-17T09:45:40.297Z,61.82
2022-11-17T09:50:45.157Z,62.41
2022-11-17T09:55:54.263Z,62.04
2022-11-17T10:00:57.664Z,61.37
2022-11-17T10:06:05.867Z,61.46
2022-11-17T10:11:32.925Z,62.01
2022-11-17T10:16:40.794Z,61.07
2022-11-17T10:21:44.480Z,59.21
2022-11-17T10:26:49.317Z,60.08
2022-11-17T10:31:52.070Z,58.99
2022-11-17T10:36:54.775Z,59.11
2022-11-17T10:41:57.453Z,58.71
2022-11-17T10:47:04.146Z,58.24
2022-11-17T10:52:08.758Z,57.94
2022-11-17T10:57:28.894Z,58.39
2022-11-17T11:02:35.613Z,58.70
2022-11-17T11:07:39.324Z,59.11
2022-11-17T11:12:45.587Z,58.98
2022-11-17T11:18:13.945Z,58.66
2022-11-17T11:23:20.542Z,57.41
2022-11-17T11:28:27.467Z,57.84
2022-11-17T11:33:30.984Z,58.79
2022-11-17T11:38:37.418Z,57.84
2022-11-17T11:43:43.227Z,56.46
2022-11-17T11:48:48.121Z,56.13
2022-11-17T11:54:01.029Z,56.26
2022-11-17T11:59:03.600Z,56.23
2022-11-17T12:04:19.917Z,56.02
2022-11-17T12:09:26.299Z,55.54
2022-11-17T12:15:03.665Z,54.61
2022-11-17T12:20:29.124Z,55.87
2022-11-17T12:25:36.037Z,56.02
2022-11-17T12:30:43.512Z,55.97
2022-11-17T12:35:47.242Z,55.86
2022-11-17T12:40:51.464Z,56.68
2022-11-17T12:46:03.986Z,56.66
2022-11-17T12:51:11.583Z,56.74
2022-11-17T12:56:20.045Z,57.11
2022-11-17T13:01:27.614Z,57.86
2022-11-17T13:06:37.500Z,58.26
2022-11-17T13:11:40.145Z,59.20
2022-11-17T13:16:46.835Z,59.86
2022-11-17T13:21:49.417Z,60.42
2022-11-17T13:26:59.422Z,60.64
2022-11-17T13:32:11.158Z,60.75
2022-11-17T13:37:19.218Z,61.17
2022-11-17T13:42:25.192Z,61.95
2022-11-17T13:47:47.633Z,62.35
2022-11-17T13:53:10.424Z,62.78
2022-11-17T13:58:23.332Z,63.20
2022-11-17T14:03:33.205Z,63.64
2022-11-17T14:08:37.654Z,64.02
2022-11-17T14:13:41.278Z,64.20
2022-11-17T14:18:55.840Z,64.71
2022-11-17T14:24:04.540Z,65.20
2022-11-17T14:29:13.555Z,65.41
2022-11-17T14:34:16.782Z,66.00
2022-11-17T14:39:20.007Z,66.43
2022-11-17T14:44:23.233Z,66.56
2022-11-17T14:49:25.789Z,67.21
2022-11-17T14:54:28.971Z,67.88
2022-11-17T14:59:31.555Z,68.21
2022-11-17T15:05:07.245Z,68.92
2022-11-17T15:10:10.289Z,69.48
2022-11-17T15:15:12.957Z,69.77
2022-11-17T15:20:15.675Z,70.04
2022-11-17T15:25:18.297Z,70.68
2022-11-17T15:30:20.960Z,71.25
2022-11-17T15:35:24.440Z,71.87
2022-11-17T15:40:26.999Z,72.31
2022-11-17T15:45:29.699Z,72.80
2022-11-17T15:50:32.209Z,73.25
2022-11-17T15:55:35.271Z,73.57
2022-11-17T16:07:18.342Z,74.71
2022-11-17T16:12:20.923Z,74.74
2022-11-17T16:17:23.539Z,75.01
2022-11-17T16:22:27.011Z,75.73
2022-11-17T16:27:29.579Z,75.96
2022-11-17T16:32:32.189Z,75.79
2022-11-17T16:37:34.722Z,76.11
2022-11-17T16:42:37.269Z,76.07
2022-11-17T16:47:39.769Z,76.33
2022-11-17T16:52:43.265Z,76.69
2022-11-17T16:57:45.848Z,77.14
2022-11-17T17:02:50.019Z,77.47
2022-11-17T17:07:52.684Z,77.34
2022-11-17T17:12:55.264Z,78.07
2022-11-17T17:17:57.829Z,78.35
2022-11-17T17:23:03.201Z,78.93
2022-11-17T17:28:05.990Z,79.72
2022-11-17T17:33:08.517Z,79.56
2022-11-17T17:38:11.081Z,79.53
2022-11-17T17:43:13.667Z,80.23
2022-11-17T17:48:16.232Z,80.05
2022-11-17T17:53:18.781Z,80.06
2022-11-17T17:58:21.331Z,80.14
2022-11-17T18:03:24.026Z,80.96
2022-11-17T18:08:26.796Z,81.37
2022-11-17T18:13:33.154Z,81.70
2022-11-17T18:18:36.618Z,81.38
2022-11-17T18:23:41.966Z,81.40
2022-11-17T18:28:51.666Z,81.35
2022-11-17T18:33:58.164Z,81.39
2022-11-17T18:39:00.745Z,82.04
2022-11-17T18:44:03.510Z,81.95
2022-11-17T18:49:06.052Z,81.73
2022-11-17T18:54:12.047Z,81.95
2022-11-17T18:59:15.308Z,81.80
2022-11-17T19:04:18.240Z,81.96
2022-11-17T19:09:20.920Z,82.38
2022-11-17T19:14:23.437Z,82.26
2022-11-17T19:19:26.465Z,82.39
2022-11-17T19:24:29.019Z,82.57
2022-11-17T19:29:31.715Z,82.96
2022-11-17T19:34:34.343Z,82.90
2022-11-17T19:39:36.991Z,83.26
2022-11-17T19:44:39.536Z,83.54
2022-11-17T19:49:43.154Z,84.79
2022-11-17T19:54:45.674Z,86.01
2022-11-17T19:59:48.239Z,85.56
2022-11-17T20:04:50.751Z,85.37
2022-11-17T20:09:53.330Z,86.01
2022-11-17T20:14:55.871Z,85.85
2022-11-17T20:19:58.431Z,85.68
2022-11-17T20:25:03.650Z,85.66
2022-11-17T20:30:10.949Z,85.05
2022-11-17T20:35:17.447Z,85.00
2022-11-17T20:40:19.991Z,84.98
2022-11-17T20:45:23.093Z,85.01
2022-11-17T20:50:25.955Z,85.05
2022-11-17T20:55:28.740Z,84.75
2022-11-17T21:00:31.281Z,84.66
2022-11-17T21:05:33.943Z,84.64
2022-11-17T21:10:36.983Z,84.54
2022-11-17T21:15:39.704Z,84.43
2022-11-17T21:20:44.489Z,83.76
2022-11-17T21:25:49.249Z,83.38
2022-11-17T21:30:51.892Z,83.35
2022-11-17T21:36:00.382Z,83.09
2022-11-17T21:41:06.045Z,83.01
2022-11-17T21:46:12.479Z,82.73
2022-11-17T21:51:14.879Z,82.46
2022-11-17T21:56:17.568Z,82.42
2022-11-17T22:01:20.163Z,82.59
2022-11-17T22:06:24.360Z,82.40
2022-11-17T22:11:32.319Z,82.27
2022-11-17T22:16:37.044Z,81.46
2022-11-17T22:21:40.491Z,81.41
2022-11-17T22:26:46.557Z,81.59
2022-11-17T22:31:50.515Z,81.02
2022-11-17T22:36:53.115Z,80.96
2022-11-17T22:41:55.674Z,81.10
2022-11-17T22:46:58.172Z,81.11
2022-11-17T22:52:03.634Z,80.96
2022-11-17T22:57:06.193Z,80.90
2022-11-17T23:02:08.787Z,80.82
2022-11-17T23:07:11.479Z,80.95
2022-11-17T23:12:14.466Z,80.64
2022-11-17T23:17:19.525Z,81.09
2022-11-17T23:22:25.313Z,80.59
2022-11-17T23:27:27.859Z,80.28
2022-11-17T23:32:30.455Z,79.87
2022-11-17T23:37:33.004Z,79.68
2022-11-17T23:42:41.629Z,79.79
2022-11-17T23:47:45.615Z,79.97
2022-11-17T23:52:48.170Z,79.39
2022-11-17T23:57:50.690Z,79.83
